Time;durP1;ratioP1;P1;durP2;ratioP2;P2;SDS_P1;SDS_P2;PMS_P1;PMS_P2;Temp;Humidity;BMP_temperature;BMP_pressure;BME280_temperature;BME280_humidity;BME280_pressure;Samples;Min_cycle;Max_cycle;Signal;HPM_P1;HPM_P2
2022/04/30 00:01:57;;;;;;;18.95;13.10;;;27.60;98.20;;;;;;4183926;28;20044;-72
2022/04/30 00:04:03;;;;;;;19.00;13.55;;;27.70;98.30;;;;;;4183499;28;20037;-71
2022/04/30 00:06:11;;;;;;;28.30;21.15;;;27.60;98.50;;;;;;4184945;28;20106;-72
2022/04/30 00:08:15;;;;;;;27.92;22.38;;;27.60;98.40;;;;;;4184563;28;20073;-72
2022/04/30 00:10:23;;;;;;;26.73;21.23;;;27.70;98.40;;;;;;4175682;28;20488;-71
2022/04/30 00:12:31;;;;;;;19.92;15.38;;;27.70;98.20;;;;;;4186230;28;20111;-71
2022/04/30 00:14:35;;;;;;;20.63;16.05;;;27.80;98.20;;;;;;4184894;28;20044;-72
2022/04/30 00:16:42;;;;;;;22.33;16.80;;;27.80;98.10;;;;;;4183354;28;20051;-71
2022/04/30 00:18:49;;;;;;;20.58;15.23;;;27.80;98.20;;;;;;4188033;28;20443;-70
2022/04/30 00:20:53;;;;;;;18.63;14.38;;;27.90;98.20;;;;;;4185245;28;20140;-70
2022/04/30 00:23:00;;;;;;;17.02;12.85;;;27.90;98.30;;;;;;4184784;28;20500;-70
2022/04/30 00:25:08;;;;;;;16.77;12.80;;;27.90;98.40;;;;;;4173504;28;20099;-70
2022/04/30 00:27:14;;;;;;;20.58;13.38;;;28.00;98.30;;;;;;4185224;28;20098;-70
2022/04/30 00:29:21;;;;;;;19.45;16.05;;;28.00;98.10;;;;;;4188919;28;20140;-71
2022/04/30 00:31:27;;;;;;;25.25;18.15;;;28.10;98.10;;;;;;4188104;28;20045;-71
2022/04/30 00:33:32;;;;;;;25.65;18.60;;;28.20;98.00;;;;;;4184711;28;20583;-69
2022/04/30 00:35:39;;;;;;;22.08;16.25;;;28.20;98.00;;;;;;4169129;28;20057;-69
2022/04/30 00:37:46;;;;;;;17.63;13.65;;;28.20;97.80;;;;;;4187750;28;20037;-71
2022/04/30 00:39:50;;;;;;;16.60;12.75;;;28.20;97.70;;;;;;4186742;28;20040;-70
2022/04/30 00:41:57;;;;;;;22.35;12.68;;;28.20;97.50;;;;;;4184656;28;20045;-70
2022/04/30 00:44:07;;;;;;;19.23;15.35;;;28.30;97.60;;;;;;4187244;28;20071;-71
2022/04/30 00:46:13;;;;;;;26.92;18.52;;;28.20;97.70;;;;;;4181286;28;20052;-68
2022/04/30 00:48:20;;;;;;;23.58;16.85;;;28.30;97.70;;;;;;4184104;28;20032;-68
2022/04/30 00:50:28;;;;;;;19.67;13.60;;;28.30;97.80;;;;;;4183483;28;20083;-69
2022/04/30 00:52:33;;;;;;;15.85;12.55;;;28.30;97.70;;;;;;4183125;28;20056;-69
2022/04/30 00:54:40;;;;;;;16.65;11.20;;;28.30;97.60;;;;;;4183121;28;20139;-69
2022/04/30 00:56:58;;;;;;;14.32;10.25;;;28.30;97.60;;;;;;4182131;28;20070;-68
2022/04/30 00:59:05;;;;;;;13.02;10.10;;;28.30;97.50;;;;;;4180852;28;20091;-69
2022/04/30 01:01:10;;;;;;;13.73;10.25;;;28.30;97.60;;;;;;4191759;28;20048;-69
2022/04/30 01:03:31;;;;;;;14.35;10.00;;;28.40;97.40;;;;;;4189711;28;20055;-69
2022/04/30 01:05:47;;;;;;;16.10;11.30;;;28.30;97.70;;;;;;4189498;28;20048;-69
2022/04/30 01:07:54;;;;;;;15.35;10.93;;;28.40;97.60;;;;;;4189611;28;20056;-69
2022/04/30 01:10:00;;;;;;;14.85;10.80;;;28.50;97.30;;;;;;4188850;28;20061;-70
2022/04/30 01:12:09;;;;;;;11.52;9.63;;;28.60;97.30;;;;;;4190230;28;20058;-68
2022/04/30 01:14:17;;;;;;;14.50;10.02;;;28.60;97.30;;;;;;4188437;28;20048;-69
2022/04/30 01:16:22;;;;;;;13.23;9.65;;;28.60;97.30;;;;;;4191378;28;20076;-68
2022/04/30 01:18:27;;;;;;;14.43;10.00;;;28.70;97.20;;;;;;4183245;28;20821;-69
2022/04/30 01:20:34;;;;;;;11.02;9.63;;;28.80;97.10;;;;;;4186340;28;20072;-69
2022/04/30 01:23:09;;;;;;;13.15;10.13;;;28.80;97.10;;;;;;4186185;28;20463;-69
2022/04/30 01:25:14;;;;;;;14.43;10.15;;;28.90;97.30;;;;;;4184568;28;20079;-69
2022/04/30 01:27:18;;;;;;;12.25;10.50;;;28.90;97.00;;;;;;4185172;28;20048;-69
2022/04/30 01:29:25;;;;;;;13.23;10.45;;;29.00;97.10;;;;;;4187220;28;20144;-69
2022/04/30 01:38:23;;;;;;;12.32;9.43;;;29.00;96.80;;;;;;4189658;28;20044;-69
2022/04/30 01:40:30;;;;;;;13.90;10.05;;;29.00;97.10;;;;;;4189987;28;20690;-71
2022/04/30 01:42:41;;;;;;;13.30;10.38;;;29.00;97.10;;;;;;4190084;28;20044;-69
2022/04/30 01:45:07;;;;;;;13.73;10.27;;;29.10;97.20;;;;;;4168402;28;20053;-67
2022/04/30 01:47:15;;;;;;;13.93;9.70;;;29.00;97.10;;;;;;4188568;28;20148;-67
2022/04/30 01:49:24;;;;;;;14.10;10.07;;;29.10;97.10;;;;;;4168294;28;20500;-69
2022/04/30 01:51:29;;;;;;;16.08;11.50;;;29.10;97.00;;;;;;4182713;28;20044;-67
2022/04/30 01:53:40;;;;;;;14.07;10.60;;;29.10;96.90;;;;;;4166059;28;20053;-68
2022/04/30 01:55:46;;;;;;;13.57;11.02;;;29.10;96.80;;;;;;4183076;28;20677;-69
2022/04/30 01:58:03;;;;;;;13.82;10.55;;;29.20;96.80;;;;;;4184142;28;20044;-69
2022/04/30 02:00:12;;;;;;;21.33;13.07;;;29.10;96.30;;;;;;4185607;28;20759;-70
2022/04/30 02:02:22;;;;;;;16.17;11.13;;;29.10;96.20;;;;;;4185738;28;20053;-70
2022/04/30 02:04:26;;;;;;;15.38;11.07;;;29.10;96.10;;;;;;4183089;28;20468;-69
2022/04/30 02:06:35;;;;;;;15.10;11.80;;;29.00;96.20;;;;;;4181734;28;20041;-68
2022/04/30 02:08:42;;;;;;;14.90;12.77;;;29.20;95.70;;;;;;4182527;28;20068;-68
2022/04/30 02:10:48;;;;;;;15.77;11.65;;;29.30;95.50;;;;;;4187203;28;20068;-68
2022/04/30 02:12:53;;;;;;;15.88;11.95;;;29.40;95.50;;;;;;4186519;28;20036;-68
2022/04/30 02:14:58;;;;;;;13.35;11.43;;;29.40;95.60;;;;;;4190137;28;20056;-71
2022/04/30 02:17:03;;;;;;;12.90;11.18;;;29.50;95.40;;;;;;4189951;28;20043;-70
2022/04/30 02:19:10;;;;;;;15.13;10.68;;;29.40;95.20;;;;;;4189322;28;20631;-69
2022/04/30 02:21:20;;;;;;;14.30;10.90;;;29.50;95.20;;;;;;4189866;28;20067;-69
2022/04/30 02:23:24;;;;;;;16.17;11.68;;;29.40;94.80;;;;;;4191998;28;20106;-69
2022/04/30 02:25:29;;;;;;;12.52;10.60;;;29.40;95.00;;;;;;4188749;28;20155;-69
2022/04/30 02:27:34;;;;;;;12.07;10.77;;;29.40;95.10;;;;;;4191641;28;20040;-69
2022/04/30 02:29:39;;;;;;;12.88;10.63;;;29.40;94.80;;;;;;4168067;28;20047;-69
2022/04/30 02:31:49;;;;;;;12.95;10.65;;;29.40;94.60;;;;;;4158025;28;20046;-69
2022/04/30 02:33:56;;;;;;;13.45;10.77;;;29.40;94.70;;;;;;4154721;28;20086;-68
2022/04/30 02:36:00;;;;;;;15.93;11.10;;;29.50;94.90;;;;;;4188811;28;20076;-69
2022/04/30 02:38:08;;;;;;;14.77;12.05;;;29.50;95.10;;;;;;4191169;28;20040;-68
2022/04/30 02:40:14;;;;;;;16.38;11.73;;;29.60;96.00;;;;;;4190869;28;20430;-69
2022/04/30 02:42:21;;;;;;;16.50;12.32;;;29.50;96.50;;;;;;4192096;28;20372;-69
2022/04/30 02:44:27;;;;;;;16.55;12.00;;;29.50;96.60;;;;;;4189622;28;20036;-70
2022/04/30 02:46:33;;;;;;;14.07;11.82;;;29.30;96.90;;;;;;4191835;28;20048;-69
2022/04/30 02:48:38;;;;;;;18.02;11.93;;;29.50;96.70;;;;;;4189705;28;20931;-69
2022/04/30 02:50:44;;;;;;;15.85;11.82;;;29.50;96.20;;;;;;4191125;28;20171;-69
2022/04/30 02:52:54;;;;;;;17.48;11.20;;;29.50;96.90;;;;;;4192614;28;20059;-70
2022/04/30 02:54:58;;;;;;;16.35;12.40;;;29.50;96.80;;;;;;4192352;28;20052;-69
2022/04/30 02:57:05;;;;;;;20.15;13.32;;;29.50;97.00;;;;;;4192001;28;20049;-68
2022/04/30 03:01:29;;;;;;;20.30;11.68;;;29.50;96.40;;;;;;4194765;28;20052;-69
2022/04/30 03:03:48;;;;;;;13.50;11.40;;;29.60;96.50;;;;;;4179067;28;20043;-68
2022/04/30 03:05:56;;;;;;;14.48;11.25;;;29.70;95.90;;;;;;4188800;28;20048;-69
2022/04/30 03:08:04;;;;;;;13.48;11.05;;;29.80;96.10;;;;;;4169704;28;20045;-69
2022/04/30 03:10:11;;;;;;;14.02;11.10;;;29.80;96.40;;;;;;4192672;28;20044;-70
2022/04/30 03:12:18;;;;;;;17.15;11.27;;;29.80;96.30;;;;;;4193218;28;20048;-69
2022/04/30 03:14:22;;;;;;;13.45;10.80;;;29.80;96.40;;;;;;4194806;28;20588;-69
2022/04/30 03:23:18;;;;;;;14.77;11.93;;;30.50;96.10;;;;;;4194820;28;20090;-68
2022/04/30 03:25:25;;;;;;;12.82;11.23;;;30.50;96.10;;;;;;4194979;28;20048;-69
2022/04/30 03:27:32;;;;;;;14.93;11.52;;;30.40;96.40;;;;;;4194920;28;20106;-69
2022/04/30 03:29:40;;;;;;;13.20;11.65;;;30.30;96.90;;;;;;4195173;28;20052;-69
2022/04/30 03:31:47;;;;;;;15.02;11.95;;;30.40;96.50;;;;;;4191173;28;20052;-69
2022/04/30 03:33:53;;;;;;;14.30;11.75;;;30.60;96.30;;;;;;4181153;28;20045;-69
2022/04/30 03:35:59;;;;;;;13.57;11.57;;;30.50;96.50;;;;;;4186491;28;20147;-69
2022/04/30 03:38:07;;;;;;;13.35;11.80;;;30.60;96.30;;;;;;4190524;28;20044;-69
2022/04/30 03:40:13;;;;;;;17.40;12.48;;;30.50;96.30;;;;;;4194896;28;20132;-69
2022/04/30 03:42:20;;;;;;;13.70;12.30;;;30.40;96.20;;;;;;4191878;28;20062;-69
2022/04/30 03:44:26;;;;;;;14.93;12.07;;;30.60;96.10;;;;;;4183225;28;20042;-69
2022/04/30 03:46:32;;;;;;;13.63;12.20;;;30.60;96.20;;;;;;4190022;28;20048;-69
2022/04/30 03:48:38;;;;;;;17.63;12.68;;;30.70;96.30;;;;;;4193419;28;20049;-69
2022/04/30 03:50:45;;;;;;;13.68;11.60;;;30.80;96.40;;;;;;4194510;28;20049;-69
2022/04/30 03:52:50;;;;;;;13.13;11.82;;;30.70;96.00;;;;;;4193719;28;20051;-69
2022/04/30 03:55:03;;;;;;;12.55;10.82;;;30.60;95.90;;;;;;4176098;28;20056;-69
2022/04/30 03:57:07;;;;;;;14.23;11.02;;;30.60;95.60;;;;;;4193939;28;20048;-69
2022/04/30 03:59:12;;;;;;;12.95;11.52;;;30.50;95.90;;;;;;4185776;28;20056;-70
2022/04/30 04:01:18;;;;;;;13.45;12.15;;;30.60;95.90;;;;;;4193178;28;20056;-70
2022/04/30 04:03:27;;;;;;;13.73;12.18;;;30.60;95.80;;;;;;4194070;28;20406;-70
2022/04/30 04:05:33;;;;;;;13.57;11.95;;;30.70;95.70;;;;;;4194815;28;20406;-69
2022/04/30 04:07:39;;;;;;;12.70;11.40;;;30.70;95.30;;;;;;4184169;28;20589;-69
2022/04/30 04:09:46;;;;;;;13.45;12.05;;;30.80;95.90;;;;;;4178465;28;20056;-72
2022/04/30 04:11:50;;;;;;;15.15;12.20;;;30.70;95.70;;;;;;4189623;28;20072;-70
2022/04/30 04:18:33;;;;;;;13.32;11.93;;;30.80;95.60;;;;;;4192810;28;20063;-69
2022/04/30 04:20:37;;;;;;;13.93;11.48;;;30.90;95.30;;;;;;4193930;28;20040;-69
2022/04/30 04:22:42;;;;;;;14.90;12.93;;;30.80;95.50;;;;;;4189762;28;20424;-68
2022/04/30 04:27:06;;;;;;;14.23;12.45;;;31.00;95.50;;;;;;4193879;28;20045;-68
2022/04/30 04:29:16;;;;;;;14.68;12.48;;;31.10;95.40;;;;;;4193804;28;20048;-68
2022/04/30 04:31:22;;;;;;;15.05;13.02;;;30.90;95.60;;;;;;4192341;28;20063;-69
2022/04/30 04:33:27;;;;;;;13.27;11.70;;;30.90;95.70;;;;;;4184593;28;20048;-70
2022/04/30 04:35:34;;;;;;;14.40;12.38;;;31.00;95.10;;;;;;4185937;28;20554;-69
2022/04/30 04:37:38;;;;;;;14.55;12.52;;;31.10;95.60;;;;;;4187383;28;20052;-68
2022/04/30 04:39:45;;;;;;;13.93;12.05;;;31.00;95.20;;;;;;4186399;28;20055;-68
2022/04/30 04:41:52;;;;;;;13.82;12.40;;;31.10;95.20;;;;;;4191016;28;20040;-68
2022/04/30 04:43:56;;;;;;;16.63;13.00;;;31.00;95.40;;;;;;4187073;28;20051;-68
2022/04/30 04:46:02;;;;;;;13.15;11.85;;;31.10;94.90;;;;;;4181134;28;20115;-69
2022/04/30 04:48:09;;;;;;;13.57;12.27;;;31.30;94.80;;;;;;4193354;28;20047;-69
2022/04/30 04:50:14;;;;;;;15.50;12.98;;;31.50;94.50;;;;;;4179697;28;20045;-69
2022/04/30 04:52:21;;;;;;;14.35;12.73;;;31.20;94.50;;;;;;4189740;28;20079;-68
2022/04/30 04:54:27;;;;;;;13.65;12.25;;;31.30;94.60;;;;;;4190720;28;20094;-67
2022/04/30 04:56:32;;;;;;;12.75;11.40;;;31.40;94.50;;;;;;4184835;28;20537;-68
2022/04/30 04:58:40;;;;;;;14.88;12.18;;;31.50;94.00;;;;;;4186518;28;20131;-67
2022/04/30 05:00:49;;;;;;;15.38;12.48;;;31.60;94.20;;;;;;4192798;28;20044;-70
2022/04/30 05:02:53;;;;;;;14.15;12.75;;;31.80;94.00;;;;;;4191840;28;20036;-71
2022/04/30 05:04:59;;;;;;;15.50;12.68;;;31.90;93.70;;;;;;4188255;28;20040;-72
2022/04/30 05:07:04;;;;;;;14.70;12.07;;;31.80;93.20;;;;;;4186135;28;20049;-70
2022/04/30 05:09:11;;;;;;;15.95;11.73;;;31.80;93.20;;;;;;4182949;28;20110;-70
2022/04/30 05:11:18;;;;;;;13.70;11.50;;;32.00;93.20;;;;;;4187833;28;20474;-69
2022/04/30 05:13:30;;;;;;;12.55;11.18;;;32.00;92.80;;;;;;4193080;28;20046;-69
2022/04/30 05:15:35;;;;;;;12.77;10.95;;;32.10;93.10;;;;;;4190056;28;20885;-71
2022/04/30 05:17:42;;;;;;;12.88;11.57;;;32.20;92.90;;;;;;4191813;28;20044;-69
2022/04/30 05:19:53;;;;;;;12.52;11.10;;;32.30;92.40;;;;;;4190238;28;20179;-71
2022/04/30 05:21:58;;;;;;;13.27;11.88;;;32.40;92.30;;;;;;4178625;28;20057;-71
2022/04/30 05:24:13;;;;;;;12.27;10.98;;;32.40;92.00;;;;;;4172349;28;20499;-69
2022/04/30 05:26:19;;;;;;;13.15;11.70;;;32.40;92.10;;;;;;4131853;28;20189;-71
2022/04/30 05:28:24;;;;;;;12.75;11.45;;;32.50;92.40;;;;;;4155024;28;20867;-70
2022/04/30 05:30:31;;;;;;;17.23;11.60;;;32.50;92.90;;;;;;4173429;28;20040;-70
2022/04/30 05:32:39;;;;;;;16.60;12.35;;;32.40;92.80;;;;;;4158297;28;20107;-72
2022/04/30 05:34:46;;;;;;;12.65;11.32;;;32.40;92.80;;;;;;4175880;28;20055;-69
2022/04/30 05:36:54;;;;;;;13.50;11.43;;;32.50;92.60;;;;;;4156544;28;20037;-71
2022/04/30 05:39:01;;;;;;;13.57;12.07;;;32.50;92.40;;;;;;4173262;28;20048;-71
2022/04/30 05:41:07;;;;;;;13.50;11.27;;;32.50;92.20;;;;;;4174086;28;20496;-71
2022/04/30 05:43:13;;;;;;;13.40;11.00;;;32.60;91.90;;;;;;4174777;28;20499;-70
2022/04/30 05:45:18;;;;;;;13.38;10.80;;;32.60;91.40;;;;;;4173657;28;20064;-70
2022/04/30 05:47:23;;;;;;;12.55;10.93;;;32.70;91.60;;;;;;4173864;28;20064;-70
2022/04/30 05:49:28;;;;;;;11.65;10.55;;;32.50;91.60;;;;;;4174085;28;20387;-70
2022/04/30 05:51:34;;;;;;;11.48;10.27;;;32.50;91.60;;;;;;4174448;28;20056;-68
2022/04/30 05:53:39;;;;;;;11.20;10.10;;;32.70;91.50;;;;;;4174339;28;20045;-70
2022/04/30 05:55:47;;;;;;;11.30;10.13;;;32.50;91.20;;;;;;4173657;28;20060;-69
2022/04/30 05:57:54;;;;;;;13.32;10.40;;;32.50;91.10;;;;;;4171325;28;20075;-70
2022/04/30 06:00:01;;;;;;;11.82;10.20;;;32.50;90.90;;;;;;4172836;28;20049;-70
2022/04/30 06:02:12;;;;;;;12.75;10.50;;;32.50;91.20;;;;;;4171430;28;20045;-70
2022/04/30 06:04:22;;;;;;;12.10;10.80;;;32.60;91.10;;;;;;4171033;28;20399;-71
2022/04/30 06:06:30;;;;;;;13.40;10.50;;;32.50;91.40;;;;;;4140237;28;20042;-71
2022/04/30 06:08:40;;;;;;;13.77;10.77;;;32.70;91.40;;;;;;4171098;28;20412;-70
2022/04/30 06:10:46;;;;;;;12.02;10.27;;;32.50;91.50;;;;;;4171305;28;20045;-71
2022/04/30 06:12:53;;;;;;;14.43;10.85;;;32.40;91.80;;;;;;4172087;28;20041;-71
2022/04/30 06:14:59;;;;;;;12.82;11.27;;;32.30;92.00;;;;;;4168926;28;20708;-70
2022/04/30 06:17:05;;;;;;;13.55;10.93;;;32.40;92.00;;;;;;4168468;28;20052;-70
2022/04/30 06:19:10;;;;;;;11.68;10.48;;;32.60;91.80;;;;;;4141400;28;20133;-72
2022/04/30 06:21:20;;;;;;;11.45;10.20;;;32.60;91.50;;;;;;4142592;28;20129;-68
2022/04/30 06:23:30;;;;;;;13.18;10.45;;;32.80;91.10;;;;;;4171662;28;20048;-69
2022/04/30 06:25:36;;;;;;;12.38;10.95;;;32.70;90.90;;;;;;4171949;28;20075;-70
2022/04/30 06:27:42;;;;;;;11.68;10.48;;;32.50;91.10;;;;;;4174553;28;20048;-70
2022/04/30 06:29:51;;;;;;;12.88;10.25;;;32.50;91.20;;;;;;4174212;28;20049;-70
2022/04/30 06:31:59;;;;;;;11.90;9.90;;;32.60;91.00;;;;;;4173541;28;20745;-70
2022/04/30 06:34:06;;;;;;;12.68;10.15;;;32.80;90.90;;;;;;4176230;28;20071;-69
2022/04/30 06:36:13;;;;;;;11.43;10.20;;;33.00;90.70;;;;;;4186441;28;20563;-70
2022/04/30 06:38:18;;;;;;;14.80;10.27;;;32.80;90.60;;;;;;4174619;28;20515;-69
2022/04/30 06:40:23;;;;;;;11.90;10.70;;;32.90;90.60;;;;;;4175301;28;20557;-70
2022/04/30 06:42:37;;;;;;;13.60;10.15;;;32.80;90.10;;;;;;4176340;28;20789;-70
2022/04/30 06:44:42;;;;;;;11.52;10.32;;;32.70;90.60;;;;;;4168555;28;20071;-70
2022/04/30 06:46:52;;;;;;;12.40;9.68;;;32.70;90.90;;;;;;4175021;28;20037;-70
2022/04/30 06:48:59;;;;;;;11.95;8.98;;;32.80;90.80;;;;;;4174763;28;20037;-70
2022/04/30 06:51:06;;;;;;;10.52;8.65;;;32.90;90.00;;;;;;4188128;28;20056;-69
2022/04/30 06:57:49;;;;;;;13.35;10.18;;;33.00;90.50;;;;;;4170601;28;20045;-71
2022/04/30 06:59:57;;;;;;;11.68;9.68;;;32.80;90.80;;;;;;4172823;28;20057;-69
2022/04/30 07:02:13;;;;;;;12.07;10.05;;;32.80;90.50;;;;;;4152910;28;20128;-70
2022/04/30 07:04:29;;;;;;;10.65;9.55;;;32.90;90.50;;;;;;4173525;28;20045;-69
2022/04/30 07:06:34;;;;;;;12.15;10.20;;;33.00;90.60;;;;;;4175051;28;20044;-70
2022/04/30 07:08:40;;;;;;;12.40;10.05;;;33.00;89.90;;;;;;4176550;28;20048;-68
2022/04/30 07:10:44;;;;;;;11.27;10.10;;;33.00;90.10;;;;;;4188389;28;20036;-71
2022/04/30 07:12:51;;;;;;;10.43;9.35;;;33.20;90.00;;;;;;4176402;28;20051;-70
2022/04/30 07:14:58;;;;;;;10.90;9.80;;;33.30;90.00;;;;;;4173343;28;20051;-69
2022/04/30 07:17:05;;;;;;;12.70;9.13;;;33.20;88.40;;;;;;4170856;28;20048;-69
2022/04/30 07:19:10;;;;;;;11.75;10.23;;;33.10;88.90;;;;;;4152282;28;20037;-72
2022/04/30 07:21:16;;;;;;;11.27;10.10;;;33.20;90.20;;;;;;4177798;28;20501;-69
2022/04/30 07:23:21;;;;;;;14.52;9.82;;;33.40;89.30;;;;;;4169533;28;20057;-69
2022/04/30 07:25:28;;;;;;;10.80;9.70;;;33.20;89.70;;;;;;4170002;28;20037;-69
2022/04/30 07:27:36;;;;;;;11.23;9.50;;;33.20;89.60;;;;;;4162235;28;20833;-70
2022/04/30 07:29:44;;;;;;;11.15;9.82;;;33.30;89.30;;;;;;4160350;28;20072;-71
2022/04/30 07:31:52;;;;;;;11.02;9.82;;;33.30;88.30;;;;;;4167385;28;20812;-70
2022/04/30 07:34:00;;;;;;;10.57;9.55;;;33.30;88.60;;;;;;4161322;28;20072;-70
2022/04/30 07:36:05;;;;;;;11.40;9.85;;;33.30;88.50;;;;;;4178016;28;20140;-69
2022/04/30 07:38:13;;;;;;;10.60;8.93;;;33.30;88.70;;;;;;4181114;28;20048;-70
2022/04/30 07:40:20;;;;;;;10.38;8.93;;;33.20;87.80;;;;;;4164924;28;20044;-70
2022/04/30 07:42:25;;;;;;;12.18;9.10;;;33.20;88.60;;;;;;4167983;28;20091;-70
2022/04/30 07:44:32;;;;;;;11.73;9.07;;;33.20;89.10;;;;;;4165357;28;20080;-70
2022/04/30 07:46:38;;;;;;;10.57;9.50;;;33.10;88.10;;;;;;4169159;28;20464;-70
2022/04/30 07:48:44;;;;;;;10.07;9.07;;;33.00;89.10;;;;;;4183869;28;20064;-70
2022/04/30 07:50:57;;;;;;;11.27;9.20;;;33.10;88.20;;;;;;4168493;28;20082;-68
2022/04/30 07:53:06;;;;;;;11.73;8.70;;;33.00;88.50;;;;;;4150734;28;20060;-69
2022/04/30 07:55:10;;;;;;;10.23;8.70;;;33.00;88.50;;;;;;4163741;28;20057;-69
2022/04/30 07:57:20;;;;;;;10.18;8.93;;;33.10;87.70;;;;;;4177863;28;20048;-68
2022/04/30 07:59:26;;;;;;;10.57;7.93;;;33.20;88.20;;;;;;4167236;28;20041;-69
2022/04/30 08:01:31;;;;;;;12.38;9.85;;;33.20;86.50;;;;;;4163799;28;20129;-68
2022/04/30 08:03:40;;;;;;;11.20;9.43;;;33.00;87.70;;;;;;4166953;28;20041;-69
2022/04/30 08:05:49;;;;;;;;;;;33.00;89.10;;;;;;4166520;28;20040;-68
2022/04/30 08:07:54;;;;;;;10.63;9.23;;;33.20;87.80;;;;;;4169672;28;19931;-69
2022/04/30 08:10:02;;;;;;;9.90;8.07;;;33.10;87.90;;;;;;4168161;28;20052;-69
2022/04/30 08:12:09;;;;;;;9.63;8.35;;;33.20;87.20;;;;;;4160898;28;20159;-69
2022/04/30 08:14:14;;;;;;;10.18;8.43;;;33.20;87.40;;;;;;4167365;28;20468;-70
2022/04/30 08:16:21;;;;;;;13.65;8.75;;;33.10;86.90;;;;;;4164722;28;20439;-70
2022/04/30 08:18:29;;;;;;;9.85;8.48;;;33.10;88.50;;;;;;4166341;28;20102;-69
2022/04/30 08:20:37;;;;;;;9.93;8.45;;;33.10;88.00;;;;;;4167153;28;20408;-71
2022/04/30 08:22:44;;;;;;;9.82;8.82;;;33.10;88.50;;;;;;4176307;28;20591;-69
2022/04/30 08:24:51;;;;;;;9.75;8.52;;;33.00;87.40;;;;;;4181911;28;20649;-70
2022/04/30 08:26:59;;;;;;;11.93;9.95;;;33.00;87.50;;;;;;4185087;28;20499;-71
2022/04/30 08:29:06;;;;;;;10.13;9.00;;;33.10;88.40;;;;;;4182008;28;20053;-68
2022/04/30 08:31:13;;;;;;;9.63;8.32;;;33.10;88.40;;;;;;4132896;28;20066;-69
2022/04/30 08:33:19;;;;;;;9.02;8.13;;;33.00;87.40;;;;;;4184099;28;20053;-70
2022/04/30 08:35:26;;;;;;;11.32;8.40;;;32.90;86.20;;;;;;4146974;28;21742;-70
2022/04/30 08:37:44;;;;;;;10.98;9.05;;;32.80;87.80;;;;;;4138193;28;20080;-70
2022/04/30 08:39:49;;;;;;;27.35;24.45;;;32.90;87.70;;;;;;4181544;28;20094;-69
2022/04/30 08:41:58;;;;;;;27.00;23.98;;;32.80;87.20;;;;;;4183072;28;20045;-69
2022/04/30 08:44:04;;;;;;;16.60;13.15;;;32.90;88.00;;;;;;4177935;28;20180;-68
2022/04/30 08:46:10;;;;;;;16.67;13.50;;;32.90;87.70;;;;;;4170253;28;20073;-69
2022/04/30 08:48:18;;;;;;;12.98;11.02;;;33.00;87.90;;;;;;4183414;28;20442;-69
2022/04/30 08:50:29;;;;;;;11.98;8.60;;;33.00;87.80;;;;;;4180712;28;20044;-70
2022/04/30 08:52:36;;;;;;;11.45;9.32;;;33.00;88.50;;;;;;4165372;28;20045;-69
2022/04/30 08:54:43;;;;;;;9.88;8.43;;;33.00;88.30;;;;;;4181844;28;20642;-70
2022/04/30 08:56:55;;;;;;;10.00;8.80;;;33.00;88.30;;;;;;4181951;28;20067;-68
2022/04/30 08:59:07;;;;;;;14.70;12.63;;;33.10;88.90;;;;;;4181525;28;20041;-68
2022/04/30 09:01:18;;;;;;;15.40;11.98;;;33.00;89.60;;;;;;4182889;28;20069;-70
2022/04/30 09:03:26;;;;;;;14.80;12.73;;;33.00;90.00;;;;;;4168683;28;20045;-68
2022/04/30 09:05:35;;;;;;;15.88;12.60;;;33.00;90.20;;;;;;4187930;28;20043;-70
2022/04/30 09:07:51;;;;;;;13.80;11.40;;;33.00;89.60;;;;;;4191123;28;20151;-69
2022/04/30 09:10:03;;;;;;;12.43;9.98;;;32.90;90.00;;;;;;4192252;28;20036;-70
2022/04/30 09:12:14;;;;;;;13.68;10.95;;;33.00;89.50;;;;;;4170949;28;20145;-71
2022/04/30 09:14:26;;;;;;;14.25;11.45;;;33.00;89.60;;;;;;4191336;28;20136;-69
2022/04/30 09:16:32;;;;;;;12.73;10.10;;;33.10;89.30;;;;;;4171421;28;20045;-67
2022/04/30 09:18:40;;;;;;;11.68;9.30;;;33.10;89.30;;;;;;4174278;28;20045;-70
2022/04/30 09:20:48;;;;;;;18.85;10.15;;;33.00;89.30;;;;;;4188263;28;20044;-70
2022/04/30 09:22:56;;;;;;;47.00;12.75;;;33.00;88.70;;;;;;4190932;28;20519;-69
2022/04/30 09:25:07;;;;;;;20.40;15.70;;;33.00;88.80;;;;;;4188230;28;20139;-68
2022/04/30 09:27:41;;;;;;;13.38;11.30;;;33.00;88.90;;;;;;4175126;28;20103;-69
2022/04/30 09:29:52;;;;;;;11.73;10.30;;;32.70;90.00;;;;;;4190181;28;20045;-69
2022/04/30 09:31:57;;;;;;;12.23;10.30;;;32.60;88.90;;;;;;4173313;28;20435;-69
2022/04/30 09:37:41;;;;;;;11.30;9.50;;;32.70;89.10;;;;;;4192550;28;20044;-69
2022/04/30 09:38:53;;;;;;;12.13;9.98;;;32.80;90.10;;;;;;4190679;28;20041;-69
2022/04/30 09:41:00;;;;;;;10.45;9.35;;;32.80;90.30;;;;;;4189998;28;20114;-71
2022/04/30 09:43:16;;;;;;;11.02;9.07;;;32.80;90.00;;;;;;4172201;28;20099;-69
2022/04/30 09:45:29;;;;;;;13.55;9.50;;;32.80;90.00;;;;;;4189015;28;20453;-71
2022/04/30 09:47:38;;;;;;;14.65;10.25;;;32.70;89.80;;;;;;4188514;28;20049;-71
2022/04/30 09:54:25;;;;;;;15.73;9.18;;;32.70;89.10;;;;;;4191305;28;20059;-70
2022/04/30 09:56:44;;;;;;;12.63;10.32;;;32.60;89.40;;;;;;4190103;28;20128;-69
2022/04/30 09:58:51;;;;;;;13.43;10.15;;;32.50;90.00;;;;;;4190376;28;20048;-68
2022/04/30 10:00:58;;;;;;;11.27;9.25;;;32.50;90.00;;;;;;4186624;28;20033;-69
2022/04/30 10:03:05;;;;;;;10.35;8.38;;;32.50;89.80;;;;;;4189542;28;20101;-69
2022/04/30 10:05:11;;;;;;;10.60;9.50;;;32.40;89.30;;;;;;4187021;28;20317;-67
2022/04/30 10:07:19;;;;;;;12.15;9.02;;;32.40;90.10;;;;;;4173169;28;20045;-69
2022/04/30 10:09:44;;;;;;;14.25;9.18;;;32.50;89.60;;;;;;4172172;28;20037;-69
2022/04/30 10:12:22;;;;;;;11.52;9.73;;;32.50;90.00;;;;;;4176706;28;20048;-69
2022/04/30 10:14:38;;;;;;;12.77;10.25;;;32.40;89.80;;;;;;4194406;28;20049;-68
2022/04/30 10:17:09;;;;;;;14.15;11.77;;;32.40;89.90;;;;;;4192197;28;20051;-69
2022/04/30 10:19:19;;;;;;;14.45;9.88;;;32.30;90.10;;;;;;4193408;28;20033;-67
2022/04/30 10:21:28;;;;;;;19.08;10.43;;;32.30;90.00;;;;;;4176059;28;20124;-68
2022/04/30 10:23:33;;;;;;;15.15;11.15;;;32.30;90.30;;;;;;4186000;28;20439;-67
2022/04/30 10:25:49;;;;;;;14.75;11.05;;;32.30;90.30;;;;;;4195724;28;20052;-68
2022/04/30 10:28:23;;;;;;;13.60;10.55;;;32.30;90.10;;;;;;4178968;28;20871;-68
2022/04/30 10:30:28;;;;;;;;;;;32.30;90.20;;;;;;4193496;28;20072;-68
2022/04/30 10:32:34;;;;;;;12.63;10.25;;;32.20;90.10;;;;;;4193641;28;20383;-68
2022/04/30 10:34:40;;;;;;;13.02;11.52;;;32.20;90.40;;;;;;4192895;28;20816;-68
2022/04/30 10:36:53;;;;;;;13.10;10.75;;;32.20;90.40;;;;;;4191773;28;20056;-68
2022/04/30 10:39:00;;;;;;;13.52;10.35;;;32.20;90.40;;;;;;4176963;28;20055;-68
2022/04/30 10:41:10;;;;;;;13.07;10.10;;;32.30;90.20;;;;;;4174684;28;20037;-68
2022/04/30 10:43:35;;;;;;;14.48;10.05;;;32.20;89.90;;;;;;4192979;28;20041;-68
2022/04/30 10:45:40;;;;;;;14.63;10.40;;;32.20;90.30;;;;;;4192986;28;20071;-68
2022/04/30 10:47:53;;;;;;;13.30;9.98;;;32.20;90.10;;;;;;4195285;28;20048;-70
2022/04/30 10:49:58;;;;;;;19.15;11.02;;;32.10;90.20;;;;;;4195588;28;20727;-70
2022/04/30 10:52:03;;;;;;;15.45;10.82;;;32.10;90.50;;;;;;4195408;28;20089;-69
2022/04/30 10:54:21;;;;;;;16.42;10.95;;;32.10;90.20;;;;;;4194288;28;20131;-70
2022/04/30 10:56:29;;;;;;;20.42;10.82;;;32.00;90.20;;;;;;4194389;28;20053;-70
2022/04/30 10:58:35;;;;;;;14.70;10.45;;;32.00;90.50;;;;;;4195343;28;20132;-69
2022/04/30 11:00:44;;;;;;;11.40;9.40;;;32.00;90.50;;;;;;4194086;28;20044;-69
2022/04/30 11:02:49;;;;;;;18.13;10.63;;;32.00;90.60;;;;;;4182399;28;20123;-68
2022/04/30 11:04:53;;;;;;;15.10;11.50;;;31.90;90.70;;;;;;4186544;28;20115;-68
2022/04/30 11:07:00;;;;;;;13.77;11.07;;;31.90;91.00;;;;;;4188665;28;20045;-69
2022/04/30 11:09:06;;;;;;;12.93;11.27;;;31.80;90.80;;;;;;4166452;28;20049;-69
2022/04/30 11:11:13;;;;;;;27.90;11.93;;;31.80;91.00;;;;;;4185572;28;20135;-69
2022/04/30 11:13:21;;;;;;;14.10;11.73;;;31.80;91.00;;;;;;4176150;28;20049;-69
2022/04/30 11:15:25;;;;;;;14.88;10.65;;;31.80;91.20;;;;;;4186583;28;20061;-69
2022/04/30 11:17:43;;;;;;;14.63;10.85;;;31.80;91.30;;;;;;4144088;28;20602;-68
2022/04/30 11:19:55;;;;;;;14.90;11.20;;;31.80;91.30;;;;;;4193099;28;20699;-68
2022/04/30 11:22:00;;;;;;;14.23;10.90;;;31.80;91.40;;;;;;4191902;28;20078;-69
2022/04/30 11:24:05;;;;;;;16.30;11.25;;;31.80;91.50;;;;;;4166803;28;20077;-69
2022/04/30 11:26:18;;;;;;;12.77;10.75;;;31.80;91.80;;;;;;4193593;28;20135;-69
2022/04/30 11:28:29;;;;;;;15.05;10.32;;;31.70;91.80;;;;;;4192761;28;20036;-69